sensor_id;sensor_type;location;lat;lon;timestamp;pressure;altitude;pressure_sealevel;temperature;humidity
51031;BME280;37058;41.442;23.240;2022-10-31T00:01:26;100883.72;;;8.48;78.90
51031;BME280;37058;41.442;23.240;2022-10-31T00:03:54;100886.75;;;8.39;79.50
51031;BME280;37058;41.442;23.240;2022-10-31T00:06:21;100880.38;;;8.27;80.41
51031;BME280;37058;41.442;23.240;2022-10-31T00:08:53;100891.88;;;8.29;80.69
51031;BME280;37058;41.442;23.240;2022-10-31T00:11:20;100892.69;;;8.30;80.82
51031;BME280;37058;41.442;23.240;2022-10-31T00:13:45;100886.56;;;8.34;81.37
51031;BME280;37058;41.442;23.240;2022-10-31T00:16:17;100886.94;;;8.38;81.41
51031;BME280;37058;41.442;23.240;2022-10-31T00:18:43;100899.91;;;8.42;81.48
51031;BME280;37058;41.442;23.240;2022-10-31T00:21:10;100898.16;;;8.48;81.65
51031;BME280;37058;41.442;23.240;2022-10-31T00:23:35;100892.03;;;8.53;81.58
51031;BME280;37058;41.442;23.240;2022-10-31T00:26:02;100888.28;;;8.54;81.73
51031;BME280;37058;41.442;23.240;2022-10-31T00:28:29;100893.06;;;8.58;82.13
51031;BME280;37058;41.442;23.240;2022-10-31T00:31:03;100898.41;;;8.65;82.07
51031;BME280;37058;41.442;23.240;2022-10-31T00:33:29;100888.72;;;8.69;82.29
51031;BME280;37058;41.442;23.240;2022-10-31T00:35:56;100891.59;;;8.74;81.96
51031;BME280;37058;41.442;23.240;2022-10-31T00:38:22;100897.66;;;8.76;82.08
51031;BME280;37058;41.442;23.240;2022-10-31T00:40:48;100893.38;;;8.80;81.65
51031;BME280;37058;41.442;23.240;2022-10-31T00:43:14;100891.31;;;8.64;78.93
51031;BME280;37058;41.442;23.240;2022-10-31T00:45:42;100880.13;;;8.54;78.09
51031;BME280;37058;41.442;23.240;2022-10-31T00:48:08;100892.63;;;8.36;77.57
51031;BME280;37058;41.442;23.240;2022-10-31T00:50:35;100893.13;;;8.08;78.52
51031;BME280;37058;41.442;23.240;2022-10-31T00:53:01;100895.44;;;7.86;79.09
51031;BME280;37058;41.442;23.240;2022-10-31T00:55:26;100898.19;;;7.79;80.04
51031;BME280;37058;41.442;23.240;2022-10-31T00:57:52;100892.56;;;7.81;80.80
51031;BME280;37058;41.442;23.240;2022-10-31T01:00:18;100893.38;;;7.81;82.41
51031;BME280;37058;41.442;23.240;2022-10-31T01:02:44;100885.84;;;7.84;82.52
51031;BME280;37058;41.442;23.240;2022-10-31T01:05:10;100887.88;;;7.88;82.90
51031;BME280;37058;41.442;23.240;2022-10-31T01:07:37;100890.00;;;7.86;83.05
51031;BME280;37058;41.442;23.240;2022-10-31T01:10:04;100893.50;;;7.93;83.26
51031;BME280;37058;41.442;23.240;2022-10-31T01:12:35;100884.50;;;7.93;83.03
51031;BME280;37058;41.442;23.240;2022-10-31T01:15:01;100893.94;;;7.90;83.40
51031;BME280;37058;41.442;23.240;2022-10-31T01:17:27;100892.09;;;7.84;83.82
51031;BME280;37058;41.442;23.240;2022-10-31T01:19:53;100891.66;;;7.87;83.89
51031;BME280;37058;41.442;23.240;2022-10-31T01:22:18;100898.31;;;7.91;83.53
51031;BME280;37058;41.442;23.240;2022-10-31T01:24:44;100897.50;;;7.91;83.62
51031;BME280;37058;41.442;23.240;2022-10-31T01:27:10;100885.38;;;7.87;83.10
51031;BME280;37058;41.442;23.240;2022-10-31T01:29:36;100892.88;;;7.91;82.91
51031;BME280;37058;41.442;23.240;2022-10-31T01:32:02;100892.66;;;7.93;82.82
51031;BME280;37058;41.442;23.240;2022-10-31T01:34:28;100889.94;;;7.93;82.96
51031;BME280;37058;41.442;23.240;2022-10-31T01:36:54;100893.25;;;7.95;82.94
51031;BME280;37058;41.442;23.240;2022-10-31T01:39:20;100898.94;;;7.93;83.21
51031;BME280;37058;41.442;23.240;2022-10-31T01:41:50;100886.00;;;7.89;82.99
51031;BME280;37058;41.442;23.240;2022-10-31T01:47:01;100892.88;;;7.91;83.90
51031;BME280;37058;41.442;23.240;2022-10-31T01:49:42;100891.22;;;7.90;84.23
51031;BME280;37058;41.442;23.240;2022-10-31T01:54:45;100885.00;;;7.83;86.32
51031;BME280;37058;41.442;23.240;2022-10-31T01:57:13;100890.00;;;7.86;87.14
51031;BME280;37058;41.442;23.240;2022-10-31T01:59:46;100892.50;;;7.88;86.83
51031;BME280;37058;41.442;23.240;2022-10-31T02:02:13;100896.25;;;7.87;87.12
51031;BME280;37058;41.442;23.240;2022-10-31T02:04:41;100890.00;;;7.86;87.35
51031;BME280;37058;41.442;23.240;2022-10-31T02:07:25;100893.38;;;7.81;86.28
51031;BME280;37058;41.442;23.240;2022-10-31T02:09:53;100894.03;;;7.77;85.95
51031;BME280;37058;41.442;23.240;2022-10-31T02:12:20;100892.59;;;7.74;86.40
51031;BME280;37058;41.442;23.240;2022-10-31T02:14:47;100892.44;;;7.69;86.34
51031;BME280;37058;41.442;23.240;2022-10-31T02:17:13;100888.22;;;7.73;86.78
51031;BME280;37058;41.442;23.240;2022-10-31T02:20:09;100895.94;;;7.76;86.14
51031;BME280;37058;41.442;23.240;2022-10-31T02:29:04;100907.72;;;7.70;82.16
51031;BME280;37058;41.442;23.240;2022-10-31T02:34:48;100912.97;;;7.65;81.99
51031;BME280;37058;41.442;23.240;2022-10-31T02:43:00;100909.97;;;7.48;79.62
51031;BME280;37058;41.442;23.240;2022-10-31T02:46:02;100911.03;;;7.47;80.26
51031;BME280;37058;41.442;23.240;2022-10-31T02:48:33;100913.28;;;7.50;80.66
51031;BME280;37058;41.442;23.240;2022-10-31T02:51:03;100914.75;;;7.53;81.50
51031;BME280;37058;41.442;23.240;2022-10-31T02:53:36;100918.66;;;7.57;82.03
51031;BME280;37058;41.442;23.240;2022-10-31T02:56:18;100926.16;;;7.62;82.98
51031;BME280;37058;41.442;23.240;2022-10-31T02:58:58;100921.78;;;7.60;83.63
51031;BME280;37058;41.442;23.240;2022-10-31T03:10:56;100919.94;;;7.54;80.57
51031;BME280;37058;41.442;23.240;2022-10-31T03:14:01;100917.03;;;7.49;80.65
51031;BME280;37058;41.442;23.240;2022-10-31T03:16:48;100928.97;;;7.48;80.86
51031;BME280;37058;41.442;23.240;2022-10-31T03:19:29;100928.94;;;7.55;81.95
51031;BME280;37058;41.442;23.240;2022-10-31T03:22:07;100931.88;;;7.53;80.90
51031;BME280;37058;41.442;23.240;2022-10-31T03:24:38;100931.84;;;7.60;82.85
51031;BME280;37058;41.442;23.240;2022-10-31T03:27:06;100929.94;;;7.60;83.92
51031;BME280;37058;41.442;23.240;2022-10-31T03:29:35;100922.16;;;7.64;83.72
51031;BME280;37058;41.442;23.240;2022-10-31T03:32:14;100924.97;;;7.57;84.65
51031;BME280;37058;41.442;23.240;2022-10-31T03:34:43;100939.19;;;7.53;85.11
51031;BME280;37058;41.442;23.240;2022-10-31T03:37:16;100948.38;;;7.52;85.75
51031;BME280;37058;41.442;23.240;2022-10-31T03:39:44;100947.34;;;7.53;86.14
51031;BME280;37058;41.442;23.240;2022-10-31T03:42:22;100938.78;;;7.49;85.79
51031;BME280;37058;41.442;23.240;2022-10-31T03:45:06;100933.44;;;7.36;83.14
51031;BME280;37058;41.442;23.240;2022-10-31T03:47:35;100940.63;;;7.24;82.29
51031;BME280;37058;41.442;23.240;2022-10-31T03:50:07;100936.53;;;7.14;82.75
51031;BME280;37058;41.442;23.240;2022-10-31T03:55:31;100929.69;;;6.99;83.59
51031;BME280;37058;41.442;23.240;2022-10-31T03:58:06;100926.13;;;6.98;83.63
51031;BME280;37058;41.442;23.240;2022-10-31T04:00:35;100930.75;;;6.98;83.98
51031;BME280;37058;41.442;23.240;2022-10-31T04:03:22;100939.53;;;6.93;84.44
51031;BME280;37058;41.442;23.240;2022-10-31T04:05:52;100943.69;;;6.95;84.62
51031;BME280;37058;41.442;23.240;2022-10-31T04:08:23;100937.44;;;6.95;84.96
51031;BME280;37058;41.442;23.240;2022-10-31T04:10:52;100938.69;;;6.99;84.77
51031;BME280;37058;41.442;23.240;2022-10-31T04:13:31;100941.44;;;6.86;85.25
51031;BME280;37058;41.442;23.240;2022-10-31T04:15:59;100943.31;;;6.85;84.47
51031;BME280;37058;41.442;23.240;2022-10-31T04:18:25;100953.41;;;6.71;85.08
51031;BME280;37058;41.442;23.240;2022-10-31T04:21:12;100946.50;;;6.76;85.29
51031;BME280;37058;41.442;23.240;2022-10-31T04:23:37;100942.31;;;6.80;85.13
51031;BME280;37058;41.442;23.240;2022-10-31T04:26:04;100944.16;;;6.86;84.88
51031;BME280;37058;41.442;23.240;2022-10-31T04:28:30;100943.75;;;6.89;84.85
51031;BME280;37058;41.442;23.240;2022-10-31T04:30:55;100942.88;;;6.88;84.38
51031;BME280;37058;41.442;23.240;2022-10-31T04:33:21;100928.72;;;6.86;84.72
51031;BME280;37058;41.442;23.240;2022-10-31T04:35:47;100920.78;;;6.85;85.59
51031;BME280;37058;41.442;23.240;2022-10-31T04:38:13;100943.06;;;6.93;85.92
51031;BME280;37058;41.442;23.240;2022-10-31T04:40:39;100954.59;;;6.89;86.11
51031;BME280;37058;41.442;23.240;2022-10-31T04:43:05;100949.00;;;6.84;86.29
51031;BME280;37058;41.442;23.240;2022-10-31T04:45:31;100945.03;;;6.80;87.50
51031;BME280;37058;41.442;23.240;2022-10-31T04:47:57;100953.16;;;6.80;88.34
51031;BME280;37058;41.442;23.240;2022-10-31T04:50:23;100960.44;;;6.86;89.85
51031;BME280;37058;41.442;23.240;2022-10-31T04:52:48;100955.81;;;6.93;90.70
51031;BME280;37058;41.442;23.240;2022-10-31T04:55:14;100964.66;;;6.82;85.38
51031;BME280;37058;41.442;23.240;2022-10-31T04:57:49;100966.75;;;6.80;83.76
51031;BME280;37058;41.442;23.240;2022-10-31T05:00:19;100962.75;;;6.82;83.25
51031;BME280;37058;41.442;23.240;2022-10-31T05:02:47;100961.94;;;6.82;83.30
51031;BME280;37058;41.442;23.240;2022-10-31T05:05:16;100970.28;;;6.80;83.51
51031;BME280;37058;41.442;23.240;2022-10-31T05:07:44;100974.69;;;6.75;83.93
51031;BME280;37058;41.442;23.240;2022-10-31T05:10:12;100980.75;;;6.77;84.19
51031;BME280;37058;41.442;23.240;2022-10-31T05:12:59;100980.13;;;6.75;83.83
51031;BME280;37058;41.442;23.240;2022-10-31T05:15:27;100985.16;;;6.64;82.30
51031;BME280;37058;41.442;23.240;2022-10-31T05:17:54;100980.56;;;6.71;81.79
51031;BME280;37058;41.442;23.240;2022-10-31T05:20:25;100977.84;;;6.71;81.96
51031;BME280;37058;41.442;23.240;2022-10-31T05:22:54;100990.59;;;6.71;81.89
51031;BME280;37058;41.442;23.240;2022-10-31T05:25:22;100989.94;;;6.76;82.10
51031;BME280;37058;41.442;23.240;2022-10-31T05:27:51;100992.44;;;6.84;82.30
51031;BME280;37058;41.442;23.240;2022-10-31T05:30:20;100999.28;;;6.93;82.69
51031;BME280;37058;41.442;23.240;2022-10-31T05:32:49;101005.91;;;7.04;82.42
51031;BME280;37058;41.442;23.240;2022-10-31T05:35:22;101004.44;;;7.14;82.89
51031;BME280;37058;41.442;23.240;2022-10-31T05:37:48;101011.69;;;7.21;83.32
51031;BME280;37058;41.442;23.240;2022-10-31T05:40:16;100999.63;;;7.16;84.85
51031;BME280;37058;41.442;23.240;2022-10-31T05:42:43;101007.69;;;7.30;85.15
51031;BME280;37058;41.442;23.240;2022-10-31T05:45:12;101004.34;;;7.28;85.89
51031;BME280;37058;41.442;23.240;2022-10-31T05:47:38;101011.22;;;7.37;85.63
51031;BME280;37058;41.442;23.240;2022-10-31T05:50:06;101002.56;;;7.47;85.35
51031;BME280;37058;41.442;23.240;2022-10-31T05:52:32;101005.66;;;7.57;85.01
51031;BME280;37058;41.442;23.240;2022-10-31T05:54:58;101006.97;;;7.79;84.78
51031;BME280;37058;41.442;23.240;2022-10-31T05:57:24;101013.22;;;8.62;81.47
51031;BME280;37058;41.442;23.240;2022-10-31T05:59:50;101020.75;;;10.71;73.46
51031;BME280;37058;41.442;23.240;2022-10-31T06:02:21;101018.25;;;12.08;66.92
51031;BME280;37058;41.442;23.240;2022-10-31T06:04:48;101019.59;;;12.05;66.22
51031;BME280;37058;41.442;23.240;2022-10-31T06:07:13;101016.66;;;11.66;67.24
51031;BME280;37058;41.442;23.240;2022-10-31T06:09:39;101027.69;;;11.14;69.06
51031;BME280;37058;41.442;23.240;2022-10-31T06:12:05;101033.38;;;11.24;68.80
51031;BME280;37058;41.442;23.240;2022-10-31T06:14:31;101018.06;;;11.00;69.50
51031;BME280;37058;41.442;23.240;2022-10-31T06:16:57;101039.88;;;10.71;70.65
51031;BME280;37058;41.442;23.240;2022-10-31T06:19:23;101045.19;;;10.54;71.34
51031;BME280;37058;41.442;23.240;2022-10-31T06:21:49;101038.88;;;11.41;69.55
51031;BME280;37058;41.442;23.240;2022-10-31T06:24:14;101036.09;;;12.27;66.87
51031;BME280;37058;41.442;23.240;2022-10-31T06:26:41;101041.06;;;12.64;65.41
51031;BME280;37058;41.442;23.240;2022-10-31T06:29:07;101039.84;;;13.16;64.39
51031;BME280;37058;41.442;23.240;2022-10-31T06:31:32;101039.19;;;13.75;62.63
51031;BME280;37058;41.442;23.240;2022-10-31T06:33:58;101041.84;;;13.92;62.44
51031;BME280;37058;41.442;23.240;2022-10-31T06:36:24;101051.09;;;14.45;61.00
51031;BME280;37058;41.442;23.240;2022-10-31T06:38:50;101044.53;;;14.88;59.68
51031;BME280;37058;41.442;23.240;2022-10-31T06:41:16;101053.59;;;15.42;58.29
51031;BME280;37058;41.442;23.240;2022-10-31T06:43:42;101040.56;;;16.00;57.36
51031;BME280;37058;41.442;23.240;2022-10-31T06:46:08;101037.53;;;16.53;55.70
51031;BME280;37058;41.442;23.240;2022-10-31T06:48:33;101042.47;;;16.92;54.58
51031;BME280;37058;41.442;23.240;2022-10-31T06:51:01;101037.63;;;17.33;53.55
51031;BME280;37058;41.442;23.240;2022-10-31T06:53:28;101034.78;;;17.48;52.67
51031;BME280;37058;41.442;23.240;2022-10-31T06:55:58;101043.00;;;17.64;52.36
51031;BME280;37058;41.442;23.240;2022-10-31T06:58:24;101044.38;;;17.61;52.13
51031;BME280;37058;41.442;23.240;2022-10-31T07:00:50;101044.06;;;17.73;51.98
51031;BME280;37058;41.442;23.240;2022-10-31T07:03:16;101040.22;;;17.64;51.73
51031;BME280;37058;41.442;23.240;2022-10-31T07:05:42;101038.63;;;17.58;52.49
51031;BME280;37058;41.442;23.240;2022-10-31T07:08:11;101043.00;;;17.64;52.07
51031;BME280;37058;41.442;23.240;2022-10-31T07:10:40;101036.00;;;17.82;52.00
51031;BME280;37058;41.442;23.240;2022-10-31T07:13:12;101030.44;;;18.26;51.16
51031;BME280;37058;41.442;23.240;2022-10-31T07:15:41;101037.28;;;18.63;50.02
51031;BME280;37058;41.442;23.240;2022-10-31T07:18:09;101023.50;;;19.54;48.41
51031;BME280;37058;41.442;23.240;2022-10-31T07:20:35;101028.09;;;20.53;46.08
51031;BME280;37058;41.442;23.240;2022-10-31T07:23:01;101019.31;;;20.79;44.79
51031;BME280;37058;41.442;23.240;2022-10-31T07:25:27;101018.44;;;19.99;46.38
51031;BME280;37058;41.442;23.240;2022-10-31T07:27:53;101033.91;;;19.67;47.52
51031;BME280;37058;41.442;23.240;2022-10-31T07:30:20;101030.75;;;21.05;44.62
51031;BME280;37058;41.442;23.240;2022-10-31T07:32:50;101030.31;;;19.86;46.79
51031;BME280;37058;41.442;23.240;2022-10-31T07:35:26;101029.84;;;18.63;50.34
51031;BME280;37058;41.442;23.240;2022-10-31T07:37:52;101020.75;;;17.89;52.45
51031;BME280;37058;41.442;23.240;2022-10-31T07:40:20;101030.84;;;17.60;53.69
51031;BME280;37058;41.442;23.240;2022-10-31T07:42:50;101023.28;;;17.26;54.87
51031;BME280;37058;41.442;23.240;2022-10-31T07:45:19;101011.53;;;17.00;55.94
51031;BME280;37058;41.442;23.240;2022-10-31T07:47:54;101013.78;;;16.72;57.04
51031;BME280;37058;41.442;23.240;2022-10-31T07:50:24;101006.13;;;16.43;58.05
51031;BME280;37058;41.442;23.240;2022-10-31T07:53:11;101002.53;;;16.38;58.96
51031;BME280;37058;41.442;23.240;2022-10-31T07:55:38;101014.94;;;16.15;60.11
51031;BME280;37058;41.442;23.240;2022-10-31T07:58:11;101015.78;;;16.20;60.58
51031;BME280;37058;41.442;23.240;2022-10-31T08:00:40;101018.53;;;16.25;60.71
51031;BME280;37058;41.442;23.240;2022-10-31T08:03:09;101009.97;;;16.32;60.78
51031;BME280;37058;41.442;23.240;2022-10-31T08:05:37;101001.72;;;16.32;60.82
51031;BME280;37058;41.442;23.240;2022-10-31T08:08:06;101003.09;;;16.40;60.40
51031;BME280;37058;41.442;23.240;2022-10-31T08:10:33;100995.63;;;16.45;59.44
51031;BME280;37058;41.442;23.240;2022-10-31T08:13:03;101004.44;;;16.53;58.80
51031;BME280;37058;41.442;23.240;2022-10-31T08:15:29;100992.59;;;16.57;58.82
51031;BME280;37058;41.442;23.240;2022-10-31T08:17:56;100988.44;;;16.65;58.47
51031;BME280;37058;41.442;23.240;2022-10-31T08:20:22;100996.41;;;16.77;58.31
51031;BME280;37058;41.442;23.240;2022-10-31T08:23:00;100994.75;;;16.86;58.01
51031;BME280;37058;41.442;23.240;2022-10-31T08:25:29;100988.13;;;16.92;57.94
51031;BME280;37058;41.442;23.240;2022-10-31T08:27:56;100982.84;;;16.96;57.49
51031;BME280;37058;41.442;23.240;2022-10-31T08:30:28;100983.38;;;17.03;57.09
51031;BME280;37058;41.442;23.240;2022-10-31T08:33:21;100987.47;;;17.16;57.36
51031;BME280;37058;41.442;23.240;2022-10-31T08:35:47;100987.41;;;17.26;55.94
51031;BME280;37058;41.442;23.240;2022-10-31T08:38:13;100984.34;;;17.32;55.96
51031;BME280;37058;41.442;23.240;2022-10-31T08:40:40;100987.34;;;17.41;55.48
51031;BME280;37058;41.442;23.240;2022-10-31T08:43:14;100980.97;;;17.46;54.81
51031;BME280;37058;41.442;23.240;2022-10-31T08:45:40;100983.41;;;17.52;55.03
51031;BME280;37058;41.442;23.240;2022-10-31T08:48:11;100979.50;;;17.59;54.76
51031;BME280;37058;41.442;23.240;2022-10-31T08:50:39;100983.31;;;17.68;54.49
51031;BME280;37058;41.442;23.240;2022-10-31T08:53:12;100982.75;;;17.71;53.84
51031;BME280;37058;41.442;23.240;2022-10-31T08:55:39;100979.13;;;17.75;53.81
51031;BME280;37058;41.442;23.240;2022-10-31T08:58:12;100975.53;;;17.80;53.68
51031;BME280;37058;41.442;23.240;2022-10-31T09:00:39;100973.78;;;17.89;53.23
51031;BME280;37058;41.442;23.240;2022-10-31T09:03:12;100978.94;;;18.01;52.97
51031;BME280;37058;41.442;23.240;2022-10-31T09:05:38;100971.41;;;18.12;52.95
51031;BME280;37058;41.442;23.240;2022-10-31T09:08:06;100966.31;;;18.24;52.59
51031;BME280;37058;41.442;23.240;2022-10-31T09:10:35;100970.38;;;18.32;52.77
51031;BME280;37058;41.442;23.240;2022-10-31T09:13:10;100965.47;;;18.53;52.85
51031;BME280;37058;41.442;23.240;2022-10-31T09:15:41;100960.31;;;18.70;52.57
51031;BME280;37058;41.442;23.240;2022-10-31T09:18:08;100956.91;;;18.78;52.45
51031;BME280;37058;41.442;23.240;2022-10-31T09:20:36;100952.91;;;18.90;52.38
51031;BME280;37058;41.442;23.240;2022-10-31T09:23:09;100948.91;;;19.01;52.26
51031;BME280;37058;41.442;23.240;2022-10-31T09:25:36;100949.22;;;19.18;52.20
51031;BME280;37058;41.442;23.240;2022-10-31T09:28:04;100938.00;;;19.28;51.61
51031;BME280;37058;41.442;23.240;2022-10-31T09:30:32;100941.44;;;19.39;50.29
51031;BME280;37058;41.442;23.240;2022-10-31T09:33:13;100942.13;;;19.50;49.46
51031;BME280;37058;41.442;23.240;2022-10-31T09:35:40;100932.00;;;19.59;47.87
51031;BME280;37058;41.442;23.240;2022-10-31T09:38:12;100931.31;;;19.73;47.05
51031;BME280;37058;41.442;23.240;2022-10-31T09:41:30;100933.81;;;19.88;46.70
51031;BME280;37058;41.442;23.240;2022-10-31T09:44:22;100927.25;;;19.98;46.31
51031;BME280;37058;41.442;23.240;2022-10-31T09:52:31;100932.69;;;20.35;43.67
51031;BME280;37058;41.442;23.240;2022-10-31T09:57:59;100925.88;;;20.74;41.99
51031;BME280;37058;41.442;23.240;2022-10-31T10:00:26;100917.34;;;20.85;41.89
51031;BME280;37058;41.442;23.240;2022-10-31T10:06:18;100903.13;;;21.00;42.56
51031;BME280;37058;41.442;23.240;2022-10-31T10:08:45;100907.53;;;21.01;42.47
51031;BME280;37058;41.442;23.240;2022-10-31T10:20:30;100881.03;;;21.31;41.90
51031;BME280;37058;41.442;23.240;2022-10-31T10:23:10;100873.94;;;21.39;41.50
51031;BME280;37058;41.442;23.240;2022-10-31T10:25:40;100878.13;;;21.50;41.83
51031;BME280;37058;41.442;23.240;2022-10-31T10:28:31;100878.38;;;21.62;42.00
51031;BME280;37058;41.442;23.240;2022-10-31T10:31:16;100872.47;;;21.64;41.50
51031;BME280;37058;41.442;23.240;2022-10-31T10:34:26;100867.75;;;21.64;41.50
51031;BME280;37058;41.442;23.240;2022-10-31T10:37:11;100871.38;;;21.65;41.89
51031;BME280;37058;41.442;23.240;2022-10-31T10:39:44;100868.59;;;21.65;41.54
51031;BME280;37058;41.442;23.240;2022-10-31T10:42:15;100867.44;;;21.66;41.39
51031;BME280;37058;41.442;23.240;2022-10-31T10:45:06;100856.84;;;21.68;41.67
51031;BME280;37058;41.442;23.240;2022-10-31T10:48:15;100857.00;;;21.72;41.66
51031;BME280;37058;41.442;23.240;2022-10-31T10:50:47;100846.09;;;21.75;41.62
51031;BME280;37058;41.442;23.240;2022-10-31T10:53:42;100846.09;;;22.06;40.95
51031;BME280;37058;41.442;23.240;2022-10-31T10:56:51;100849.75;;;22.16;40.98
51031;BME280;37058;41.442;23.240;2022-10-31T10:59:21;100841.88;;;22.18;41.05
51031;BME280;37058;41.442;23.240;2022-10-31T11:01:50;100838.63;;;22.16;40.56
51031;BME280;37058;41.442;23.240;2022-10-31T11:04:36;100835.31;;;22.14;40.87
51031;BME280;37058;41.442;23.240;2022-10-31T11:07:09;100838.81;;;22.19;40.65
51031;BME280;37058;41.442;23.240;2022-10-31T11:09:36;100824.75;;;22.24;40.92
51031;BME280;37058;41.442;23.240;2022-10-31T11:12:30;100826.25;;;22.31;40.60
51031;BME280;37058;41.442;23.240;2022-10-31T11:15:27;100827.25;;;22.35;40.45
51031;BME280;37058;41.442;23.240;2022-10-31T11:17:55;100820.53;;;22.36;40.59
51031;BME280;37058;41.442;23.240;2022-10-31T11:20:30;100820.88;;;22.34;40.73
51031;BME280;37058;41.442;23.240;2022-10-31T11:23:20;100822.03;;;22.42;40.42
51031;BME280;37058;41.442;23.240;2022-10-31T11:25:59;100819.31;;;22.59;39.98
51031;BME280;37058;41.442;23.240;2022-10-31T11:28:27;100812.78;;;22.64;39.90
51031;BME280;37058;41.442;23.240;2022-10-31T11:31:12;100801.63;;;22.64;40.01
51031;BME280;37058;41.442;23.240;2022-10-31T11:34:02;100791.81;;;22.66;40.33
51031;BME280;37058;41.442;23.240;2022-10-31T11:36:35;100793.59;;;22.71;39.89
51031;BME280;37058;41.442;23.240;2022-10-31T11:39:05;100789.84;;;22.76;40.06
51031;BME280;37058;41.442;23.240;2022-10-31T11:41:41;100788.06;;;22.80;39.47
51031;BME280;37058;41.442;23.240;2022-10-31T11:44:25;100784.31;;;22.84;39.87
51031;BME280;37058;41.442;23.240;2022-10-31T11:47:04;100785.63;;;22.87;39.87
51031;BME280;37058;41.442;23.240;2022-10-31T11:49:38;100789.72;;;22.89;39.44
51031;BME280;37058;41.442;23.240;2022-10-31T11:52:16;100781.84;;;22.91;39.60
51031;BME280;37058;41.442;23.240;2022-10-31T12:00:01;100774.66;;;23.08;39.01
51031;BME280;37058;41.442;23.240;2022-10-31T12:02:30;100777.59;;;23.11;38.57
51031;BME280;37058;41.442;23.240;2022-10-31T12:05:29;100772.03;;;23.11;38.87
51031;BME280;37058;41.442;23.240;2022-10-31T12:07:59;100766.13;;;23.13;38.47
51031;BME280;37058;41.442;23.240;2022-10-31T12:10:41;100770.53;;;23.14;38.60
51031;BME280;37058;41.442;23.240;2022-10-31T12:13:39;100770.38;;;23.19;38.68
51031;BME280;37058;41.442;23.240;2022-10-31T12:16:20;100762.19;;;23.23;38.60
51031;BME280;37058;41.442;23.240;2022-10-31T12:21:39;100758.91;;;23.29;38.37
51031;BME280;37058;41.442;23.240;2022-10-31T12:35:32;100745.91;;;23.51;38.01
51031;BME280;37058;41.442;23.240;2022-10-31T12:43:29;100749.19;;;23.53;37.05
51031;BME280;37058;41.442;23.240;2022-10-31T12:46:00;100735.41;;;23.56;36.32
51031;BME280;37058;41.442;23.240;2022-10-31T12:57:31;100735.69;;;23.64;36.70
51031;BME280;37058;41.442;23.240;2022-10-31T13:00:15;100733.41;;;23.66;36.36
51031;BME280;37058;41.442;23.240;2022-10-31T13:05:40;100730.63;;;23.66;36.62
51031;BME280;37058;41.442;23.240;2022-10-31T13:08:26;100723.88;;;23.67;37.33
51031;BME280;37058;41.442;23.240;2022-10-31T13:11:05;100718.47;;;23.70;37.40
51031;BME280;37058;41.442;23.240;2022-10-31T13:14:04;100720.09;;;23.71;37.55
51031;BME280;37058;41.442;23.240;2022-10-31T13:16:37;100718.13;;;23.72;37.15
51031;BME280;37058;41.442;23.240;2022-10-31T13:19:35;100721.75;;;23.72;36.87
51031;BME280;37058;41.442;23.240;2022-10-31T13:22:26;100720.09;;;23.71;37.02
51031;BME280;37058;41.442;23.240;2022-10-31T13:25:16;100716.66;;;23.74;36.91
51031;BME280;37058;41.442;23.240;2022-10-31T13:28:08;100715.53;;;23.75;37.13
51031;BME280;37058;41.442;23.240;2022-10-31T13:30:40;100713.56;;;23.76;37.26
51031;BME280;37058;41.442;23.240;2022-10-31T13:33:16;100712.88;;;23.79;37.38
51031;BME280;37058;41.442;23.240;2022-10-31T13:39:30;100711.19;;;23.87;37.67
51031;BME280;37058;41.442;23.240;2022-10-31T13:45:18;100714.81;;;23.87;37.23
51031;BME280;37058;41.442;23.240;2022-10-31T13:48:19;100715.97;;;23.86;37.18
51031;BME280;37058;41.442;23.240;2022-10-31T13:51:06;100719.91;;;23.85;37.65
51031;BME280;37058;41.442;23.240;2022-10-31T13:56:40;100716.63;;;23.83;37.90
51031;BME280;37058;41.442;23.240;2022-10-31T13:59:25;100717.78;;;23.82;38.29
51031;BME280;37058;41.442;23.240;2022-10-31T14:01:58;100711.72;;;23.80;38.47
51031;BME280;37058;41.442;23.240;2022-10-31T14:04:45;100720.44;;;23.78;38.17
51031;BME280;37058;41.442;23.240;2022-10-31T14:07:19;100711.09;;;23.74;38.63
51031;BME280;37058;41.442;23.240;2022-10-31T14:10:05;100722.59;;;23.73;38.69
51031;BME280;37058;41.442;23.240;2022-10-31T14:12:39;100713.69;;;23.71;38.57
51031;BME280;37058;41.442;23.240;2022-10-31T14:15:20;100712.06;;;23.70;39.05
51031;BME280;37058;41.442;23.240;2022-10-31T14:17:57;100710.75;;;23.67;39.28
51031;BME280;37058;41.442;23.240;2022-10-31T14:20:42;100705.84;;;23.64;39.72
51031;BME280;37058;41.442;23.240;2022-10-31T14:25:54;100708.69;;;23.55;39.94
51031;BME280;37058;41.442;23.240;2022-10-31T14:28:38;100702.13;;;23.51;39.94
51031;BME280;37058;41.442;23.240;2022-10-31T14:31:37;100705.59;;;23.48;39.91
51031;BME280;37058;41.442;23.240;2022-10-31T14:34:43;100711.34;;;23.43;40.25
51031;BME280;37058;41.442;23.240;2022-10-31T14:38:00;100712.69;;;23.37;40.39
51031;BME280;37058;41.442;23.240;2022-10-31T14:49:21;100709.13;;;23.10;41.74
51031;BME280;37058;41.442;23.240;2022-10-31T14:51:51;100707.47;;;23.01;42.04
51031;BME280;37058;41.442;23.240;2022-10-31T14:54:33;100713.03;;;22.92;42.93
51031;BME280;37058;41.442;23.240;2022-10-31T14:57:13;100713.03;;;22.83;44.57
51031;BME280;37058;41.442;23.240;2022-10-31T14:59:45;100715.84;;;22.75;45.95
51031;BME280;37058;41.442;23.240;2022-10-31T15:02:29;100723.00;;;22.58;45.95
51031;BME280;37058;41.442;23.240;2022-10-31T15:05:00;100719.88;;;22.42;45.72
51031;BME280;37058;41.442;23.240;2022-10-31T15:07:28;100720.06;;;22.28;46.01